sensor_id;sensor_type;location;lat;lon;timestamp;pressure;altitude;pressure_sealevel;temperature;humidity
8286;BME280;4181;43.416;24.598;2024-01-30T00:00:00;102638.47;;;4.17;100.00
8286;BME280;4181;43.416;24.598;2024-01-30T00:02:27;102616.56;;;4.11;100.00
8286;BME280;4181;43.416;24.598;2024-01-30T00:04:52;102640.72;;;4.22;100.00
8286;BME280;4181;43.416;24.598;2024-01-30T00:07:17;102639.28;;;4.18;100.00
8286;BME280;4181;43.416;24.598;2024-01-30T00:09:43;102619.25;;;4.11;100.00
8286;BME280;4181;43.416;24.598;2024-01-30T00:12:08;102619.63;;;3.98;100.00
8286;BME280;4181;43.416;24.598;2024-01-30T00:14:34;102632.25;;;3.98;100.00
8286;BME280;4181;43.416;24.598;2024-01-30T00:16:59;102630.88;;;3.94;100.00
8286;BME280;4181;43.416;24.598;2024-01-30T00:19:25;102629.88;;;3.95;100.00
8286;BME280;4181;43.416;24.598;2024-01-30T00:21:51;102627.56;;;4.00;100.00
8286;BME280;4181;43.416;24.598;2024-01-30T00:24:19;102622.69;;;4.13;100.00
8286;BME280;4181;43.416;24.598;2024-01-30T00:26:44;102633.47;;;4.13;100.00
8286;BME280;4181;43.416;24.598;2024-01-30T00:29:11;102622.41;;;4.06;100.00
8286;BME280;4181;43.416;24.598;2024-01-30T00:31:37;102629.56;;;4.07;100.00
8286;BME280;4181;43.416;24.598;2024-01-30T00:34:02;102641.75;;;4.11;100.00
8286;BME280;4181;43.416;24.598;2024-01-30T00:36:28;102641.69;;;4.21;100.00
8286;BME280;4181;43.416;24.598;2024-01-30T00:38:55;102639.69;;;4.23;100.00
8286;BME280;4181;43.416;24.598;2024-01-30T00:41:20;102628.34;;;4.19;100.00
8286;BME280;4181;43.416;24.598;2024-01-30T00:43:46;102636.66;;;4.35;100.00
8286;BME280;4181;43.416;24.598;2024-01-30T00:46:11;102630.41;;;4.35;100.00
8286;BME280;4181;43.416;24.598;2024-01-30T00:48:37;102634.25;;;4.32;100.00
8286;BME280;4181;43.416;24.598;2024-01-30T00:51:02;102627.38;;;4.38;100.00
8286;BME280;4181;43.416;24.598;2024-01-30T00:53:28;102621.19;;;4.28;100.00
8286;BME280;4181;43.416;24.598;2024-01-30T00:55:53;102635.19;;;4.41;100.00
8286;BME280;4181;43.416;24.598;2024-01-30T00:58:19;102608.06;;;4.33;100.00
8286;BME280;4181;43.416;24.598;2024-01-30T01:00:44;102618.16;;;4.31;100.00
8286;BME280;4181;43.416;24.598;2024-01-30T01:03:13;102633.66;;;4.38;100.00
8286;BME280;4181;43.416;24.598;2024-01-30T01:05:39;102620.59;;;4.34;100.00
8286;BME280;4181;43.416;24.598;2024-01-30T01:08:05;102617.78;;;4.26;100.00
8286;BME280;4181;43.416;24.598;2024-01-30T01:10:30;102624.59;;;4.30;100.00
8286;BME280;4181;43.416;24.598;2024-01-30T01:12:55;102611.53;;;4.25;100.00
8286;BME280;4181;43.416;24.598;2024-01-30T01:15:21;102623.97;;;4.36;100.00
8286;BME280;4181;43.416;24.598;2024-01-30T01:17:46;102628.34;;;4.19;100.00
8286;BME280;4181;43.416;24.598;2024-01-30T01:20:12;102620.38;;;4.18;100.00
8286;BME280;4181;43.416;24.598;2024-01-30T01:22:37;102627.91;;;4.24;100.00
8286;BME280;4181;43.416;24.598;2024-01-30T01:25:04;102605.97;;;4.27;100.00
8286;BME280;4181;43.416;24.598;2024-01-30T01:27:32;102622.59;;;4.32;100.00
8286;BME280;4181;43.416;24.598;2024-01-30T01:29:59;102628.59;;;4.26;100.00
8286;BME280;4181;43.416;24.598;2024-01-30T01:32:25;102604.84;;;3.92;100.00
8286;BME280;4181;43.416;24.598;2024-01-30T01:34:50;102608.03;;;3.78;100.00
8286;BME280;4181;43.416;24.598;2024-01-30T01:37:15;102616.75;;;4.00;100.00
8286;BME280;4181;43.416;24.598;2024-01-30T01:39:41;102610.41;;;3.91;100.00
8286;BME280;4181;43.416;24.598;2024-01-30T01:42:06;102596.38;;;3.78;100.00
8286;BME280;4181;43.416;24.598;2024-01-30T01:44:32;102605.19;;;3.80;100.00
8286;BME280;4181;43.416;24.598;2024-01-30T01:46:57;102591.28;;;3.75;100.00
8286;BME280;4181;43.416;24.598;2024-01-30T01:49:25;102588.72;;;3.73;100.00
8286;BME280;4181;43.416;24.598;2024-01-30T01:51:54;102593.53;;;3.79;100.00
8286;BME280;4181;43.416;24.598;2024-01-30T01:54:22;102596.22;;;3.79;100.00
8286;BME280;4181;43.416;24.598;2024-01-30T01:56:49;102604.28;;;3.89;100.00
8286;BME280;4181;43.416;24.598;2024-01-30T01:59:15;102602.44;;;3.89;100.00
8286;BME280;4181;43.416;24.598;2024-01-30T02:01:41;102610.97;;;3.95;100.00
8286;BME280;4181;43.416;24.598;2024-01-30T02:04:07;102600.25;;;4.03;100.00
8286;BME280;4181;43.416;24.598;2024-01-30T02:06:36;102604.78;;;4.12;100.00
8286;BME280;4181;43.416;24.598;2024-01-30T02:09:03;102608.75;;;4.17;100.00
8286;BME280;4181;43.416;24.598;2024-01-30T02:11:30;102600.47;;;4.19;100.00
8286;BME280;4181;43.416;24.598;2024-01-30T02:13:55;102609.81;;;4.24;100.00
8286;BME280;4181;43.416;24.598;2024-01-30T02:16:21;102602.47;;;4.17;100.00
8286;BME280;4181;43.416;24.598;2024-01-30T02:18:46;102598.47;;;4.21;100.00
8286;BME280;4181;43.416;24.598;2024-01-30T02:21:16;102610.06;;;4.31;100.00
8286;BME280;4181;43.416;24.598;2024-01-30T02:23:43;102619.34;;;4.28;100.00
8286;BME280;4181;43.416;24.598;2024-01-30T02:26:10;102612.28;;;4.18;100.00
8286;BME280;4181;43.416;24.598;2024-01-30T02:28:37;102603.44;;;4.25;100.00
8286;BME280;4181;43.416;24.598;2024-01-30T02:31:02;102585.31;;;4.08;100.00
8286;BME280;4181;43.416;24.598;2024-01-30T02:33:28;102598.59;;;4.19;100.00
8286;BME280;4181;43.416;24.598;2024-01-30T02:35:53;102606.72;;;4.19;100.00
8286;BME280;4181;43.416;24.598;2024-01-30T02:38:19;102588.16;;;4.07;100.00
8286;BME280;4181;43.416;24.598;2024-01-30T02:40:44;102588.47;;;4.04;100.00
8286;BME280;4181;43.416;24.598;2024-01-30T02:43:10;102593.63;;;3.97;100.00
8286;BME280;4181;43.416;24.598;2024-01-30T02:45:35;102591.34;;;3.92;100.00
8286;BME280;4181;43.416;24.598;2024-01-30T02:48:01;102602.28;;;3.91;100.00
8286;BME280;4181;43.416;24.598;2024-01-30T02:50:27;102610.25;;;3.92;100.00
8286;BME280;4181;43.416;24.598;2024-01-30T02:52:52;102601.44;;;3.90;100.00
8286;BME280;4181;43.416;24.598;2024-01-30T02:55:17;102606.25;;;3.97;100.00
8286;BME280;4181;43.416;24.598;2024-01-30T02:57:43;102615.44;;;4.13;100.00
8286;BME280;4181;43.416;24.598;2024-01-30T03:00:09;102586.72;;;4.12;100.00
8286;BME280;4181;43.416;24.598;2024-01-30T03:02:36;102598.81;;;4.08;100.00
8286;BME280;4181;43.416;24.598;2024-01-30T03:05:02;102609.41;;;4.19;100.00
8286;BME280;4181;43.416;24.598;2024-01-30T03:07:29;102617.38;;;4.21;100.00
8286;BME280;4181;43.416;24.598;2024-01-30T03:09:54;102611.38;;;4.00;100.00
8286;BME280;4181;43.416;24.598;2024-01-30T03:12:21;102610.91;;;4.04;100.00
8286;BME280;4181;43.416;24.598;2024-01-30T03:14:46;102615.03;;;4.08;100.00
8286;BME280;4181;43.416;24.598;2024-01-30T03:17:12;102613.19;;;4.09;100.00
8286;BME280;4181;43.416;24.598;2024-01-30T03:19:37;102612.78;;;4.04;100.00
8286;BME280;4181;43.416;24.598;2024-01-30T03:22:03;102590.22;;;3.95;100.00
8286;BME280;4181;43.416;24.598;2024-01-30T03:24:28;102594.28;;;4.09;100.00
8286;BME280;4181;43.416;24.598;2024-01-30T03:26:54;102587.84;;;4.10;100.00
8286;BME280;4181;43.416;24.598;2024-01-30T03:29:19;102593.88;;;4.04;100.00
8286;BME280;4181;43.416;24.598;2024-01-30T03:31:45;102593.75;;;3.96;100.00
8286;BME280;4181;43.416;24.598;2024-01-30T03:34:10;102594.84;;;4.03;100.00
8286;BME280;4181;43.416;24.598;2024-01-30T03:36:36;102591.16;;;4.04;100.00
8286;BME280;4181;43.416;24.598;2024-01-30T03:39:01;102593.94;;;3.84;100.00
8286;BME280;4181;43.416;24.598;2024-01-30T03:41:27;102572.84;;;3.70;100.00
8286;BME280;4181;43.416;24.598;2024-01-30T03:43:52;102589.84;;;3.80;100.00
8286;BME280;4181;43.416;24.598;2024-01-30T03:46:18;102578.34;;;3.78;100.00
8286;BME280;4181;43.416;24.598;2024-01-30T03:48:44;102564.19;;;3.67;100.00
8286;BME280;4181;43.416;24.598;2024-01-30T03:51:10;102578.66;;;3.75;100.00
8286;BME280;4181;43.416;24.598;2024-01-30T03:53:43;102582.72;;;3.79;100.00
8286;BME280;4181;43.416;24.598;2024-01-30T03:56:09;102574.78;;;3.78;100.00
8286;BME280;4181;43.416;24.598;2024-01-30T03:58:35;102589.56;;;3.74;100.00
8286;BME280;4181;43.416;24.598;2024-01-30T04:01:01;102586.03;;;3.73;100.00
8286;BME280;4181;43.416;24.598;2024-01-30T04:03:26;102594.25;;;3.81;100.00
8286;BME280;4181;43.416;24.598;2024-01-30T04:05:52;102592.72;;;3.69;100.00
8286;BME280;4181;43.416;24.598;2024-01-30T04:08:18;102590.53;;;3.82;100.00
8286;BME280;4181;43.416;24.598;2024-01-30T04:10:43;102595.63;;;3.95;100.00
8286;BME280;4181;43.416;24.598;2024-01-30T04:13:10;102594.75;;;3.95;100.00
8286;BME280;4181;43.416;24.598;2024-01-30T04:15:37;102584.03;;;4.03;100.00
8286;BME280;4181;43.416;24.598;2024-01-30T04:18:02;102595.56;;;4.05;100.00
8286;BME280;4181;43.416;24.598;2024-01-30T04:20:29;102587.50;;;3.95;100.00
8286;BME280;4181;43.416;24.598;2024-01-30T04:22:54;102596.13;;;3.71;100.00
8286;BME280;4181;43.416;24.598;2024-01-30T04:25:20;102604.72;;;3.38;100.00
8286;BME280;4181;43.416;24.598;2024-01-30T04:27:46;102609.97;;;3.49;100.00
8286;BME280;4181;43.416;24.598;2024-01-30T04:30:11;102607.22;;;3.59;100.00
8286;BME280;4181;43.416;24.598;2024-01-30T04:32:37;102614.38;;;3.41;100.00
8286;BME280;4181;43.416;24.598;2024-01-30T04:35:03;102589.97;;;3.33;100.00
8286;BME280;4181;43.416;24.598;2024-01-30T04:37:29;102583.75;;;2.94;100.00
8286;BME280;4181;43.416;24.598;2024-01-30T04:39:54;102600.78;;;2.66;100.00
8286;BME280;4181;43.416;24.598;2024-01-30T04:42:20;102587.16;;;2.96;100.00
8286;BME280;4181;43.416;24.598;2024-01-30T04:44:45;102579.06;;;3.15;100.00
8286;BME280;4181;43.416;24.598;2024-01-30T04:47:11;102587.97;;;3.35;100.00
8286;BME280;4181;43.416;24.598;2024-01-30T04:49:38;102590.50;;;3.46;100.00
8286;BME280;4181;43.416;24.598;2024-01-30T04:52:05;102570.47;;;3.48;100.00
8286;BME280;4181;43.416;24.598;2024-01-30T04:54:31;102574.16;;;3.57;100.00
8286;BME280;4181;43.416;24.598;2024-01-30T04:56:56;102577.13;;;3.63;100.00
8286;BME280;4181;43.416;24.598;2024-01-30T04:59:22;102600.03;;;3.86;100.00
8286;BME280;4181;43.416;24.598;2024-01-30T05:01:47;102593.84;;;3.76;100.00
8286;BME280;4181;43.416;24.598;2024-01-30T05:04:14;102571.97;;;3.70;100.00
8286;BME280;4181;43.416;24.598;2024-01-30T05:06:40;102604.44;;;3.97;100.00
8286;BME280;4181;43.416;24.598;2024-01-30T05:09:05;102604.44;;;3.87;100.00
8286;BME280;4181;43.416;24.598;2024-01-30T05:11:31;102605.72;;;3.93;100.00
8286;BME280;4181;43.416;24.598;2024-01-30T05:13:56;102584.88;;;3.76;100.00
8286;BME280;4181;43.416;24.598;2024-01-30T05:16:22;102600.00;;;3.96;100.00
8286;BME280;4181;43.416;24.598;2024-01-30T05:18:47;102604.69;;;4.04;100.00
8286;BME280;4181;43.416;24.598;2024-01-30T05:21:13;102602.81;;;4.04;100.00
8286;BME280;4181;43.416;24.598;2024-01-30T05:23:38;102620.69;;;4.15;100.00
8286;BME280;4181;43.416;24.598;2024-01-30T05:26:04;102597.72;;;4.01;100.00
8286;BME280;4181;43.416;24.598;2024-01-30T05:28:29;102615.47;;;4.04;100.00
8286;BME280;4181;43.416;24.598;2024-01-30T05:30:56;102618.88;;;4.06;100.00
8286;BME280;4181;43.416;24.598;2024-01-30T05:33:23;102623.59;;;4.04;100.00
8286;BME280;4181;43.416;24.598;2024-01-30T05:35:48;102600.25;;;4.03;100.00
8286;BME280;4181;43.416;24.598;2024-01-30T05:38:16;102626.78;;;4.17;100.00
8286;BME280;4181;43.416;24.598;2024-01-30T05:40:41;102629.50;;;4.17;100.00
8286;BME280;4181;43.416;24.598;2024-01-30T05:43:07;102624.16;;;3.98;100.00
8286;BME280;4181;43.416;24.598;2024-01-30T05:45:33;102608.84;;;3.88;100.00
8286;BME280;4181;43.416;24.598;2024-01-30T05:48:00;102624.16;;;3.98;100.00
8286;BME280;4181;43.416;24.598;2024-01-30T05:50:25;102629.81;;;4.04;100.00
8286;BME280;4181;43.416;24.598;2024-01-30T05:52:52;102625.06;;;3.88;100.00
8286;BME280;4181;43.416;24.598;2024-01-30T05:55:17;102614.00;;;3.82;100.00
8286;BME280;4181;43.416;24.598;2024-01-30T05:57:43;102621.53;;;3.78;100.00
8286;BME280;4181;43.416;24.598;2024-01-30T06:00:08;102623.94;;;3.81;100.00
8286;BME280;4181;43.416;24.598;2024-01-30T06:02:34;102616.78;;;3.53;100.00
8286;BME280;4181;43.416;24.598;2024-01-30T06:04:59;102616.06;;;3.51;100.00
8286;BME280;4181;43.416;24.598;2024-01-30T06:07:26;102619.44;;;3.63;100.00
8286;BME280;4181;43.416;24.598;2024-01-30T06:09:51;102629.13;;;3.65;100.00
8286;BME280;4181;43.416;24.598;2024-01-30T06:12:17;102611.78;;;3.58;100.00
8286;BME280;4181;43.416;24.598;2024-01-30T06:14:42;102599.88;;;3.51;100.00
8286;BME280;4181;43.416;24.598;2024-01-30T06:17:08;102603.44;;;3.52;100.00
8286;BME280;4181;43.416;24.598;2024-01-30T06:19:34;102635.66;;;3.63;100.00
8286;BME280;4181;43.416;24.598;2024-01-30T06:22:00;102621.47;;;3.51;100.00
8286;BME280;4181;43.416;24.598;2024-01-30T06:24:25;102638.75;;;3.68;100.00
8286;BME280;4181;43.416;24.598;2024-01-30T06:26:51;102633.50;;;3.66;100.00
8286;BME280;4181;43.416;24.598;2024-01-30T06:29:16;102633.25;;;3.41;100.00
8286;BME280;4181;43.416;24.598;2024-01-30T06:31:42;102643.06;;;3.32;100.00
8286;BME280;4181;43.416;24.598;2024-01-30T06:34:08;102643.22;;;3.40;100.00
8286;BME280;4181;43.416;24.598;2024-01-30T06:36:34;102645.06;;;3.40;100.00
8286;BME280;4181;43.416;24.598;2024-01-30T06:39:00;102645.34;;;3.27;100.00
8286;BME280;4181;43.416;24.598;2024-01-30T06:41:25;102648.91;;;3.47;100.00
8286;BME280;4181;43.416;24.598;2024-01-30T06:43:51;102653.56;;;3.54;100.00
8286;BME280;4181;43.416;24.598;2024-01-30T06:46:17;102644.88;;;3.51;100.00
8286;BME280;4181;43.416;24.598;2024-01-30T06:48:42;102643.03;;;3.61;100.00
8286;BME280;4181;43.416;24.598;2024-01-30T06:51:10;102650.84;;;3.73;100.00
8286;BME280;4181;43.416;24.598;2024-01-30T06:53:36;102658.03;;;3.82;100.00
8286;BME280;4181;43.416;24.598;2024-01-30T06:56:01;102647.25;;;3.82;100.00
8286;BME280;4181;43.416;24.598;2024-01-30T06:58:26;102668.69;;;3.94;100.00
8286;BME280;4181;43.416;24.598;2024-01-30T07:00:52;102669.38;;;3.96;100.00
8286;BME280;4181;43.416;24.598;2024-01-30T07:03:17;102663.41;;;4.02;100.00
8286;BME280;4181;43.416;24.598;2024-01-30T07:05:43;102655.59;;;3.99;100.00
8286;BME280;4181;43.416;24.598;2024-01-30T07:08:08;102665.06;;;4.12;100.00
8286;BME280;4181;43.416;24.598;2024-01-30T07:10:34;102644.19;;;4.05;100.00
8286;BME280;4181;43.416;24.598;2024-01-30T07:13:00;102667.03;;;4.20;100.00
8286;BME280;4181;43.416;24.598;2024-01-30T07:15:26;102665.03;;;4.22;100.00
8286;BME280;4181;43.416;24.598;2024-01-30T07:17:51;102673.53;;;4.27;100.00
8286;BME280;4181;43.416;24.598;2024-01-30T07:20:17;102667.03;;;4.20;100.00
8286;BME280;4181;43.416;24.598;2024-01-30T07:22:45;102672.69;;;4.26;100.00
8286;BME280;4181;43.416;24.598;2024-01-30T07:25:11;102673.84;;;4.24;100.00
8286;BME280;4181;43.416;24.598;2024-01-30T07:27:36;102674.66;;;4.24;100.00
8286;BME280;4181;43.416;24.598;2024-01-30T07:30:02;102674.91;;;4.04;100.00
8286;BME280;4181;43.416;24.598;2024-01-30T07:32:28;102675.88;;;4.03;100.00
8286;BME280;4181;43.416;24.598;2024-01-30T07:34:53;102664.25;;;3.92;100.00
8286;BME280;4181;43.416;24.598;2024-01-30T07:37:19;102666.41;;;3.99;100.00
8286;BME280;4181;43.416;24.598;2024-01-30T07:39:44;102673.75;;;4.06;100.00
8286;BME280;4181;43.416;24.598;2024-01-30T07:42:10;102664.22;;;4.12;100.00
8286;BME280;4181;43.416;24.598;2024-01-30T07:44:35;102668.84;;;4.29;100.00
8286;BME280;4181;43.416;24.598;2024-01-30T07:47:01;102662.47;;;3.83;100.00
8286;BME280;4181;43.416;24.598;2024-01-30T07:49:28;102668.50;;;4.05;100.00
8286;BME280;4181;43.416;24.598;2024-01-30T07:51:54;102653.16;;;3.96;100.00
8286;BME280;4181;43.416;24.598;2024-01-30T07:54:20;102662.00;;;3.88;100.00
8286;BME280;4181;43.416;24.598;2024-01-30T07:56:45;102664.38;;;4.01;100.00
8286;BME280;4181;43.416;24.598;2024-01-30T07:59:11;102673.06;;;3.95;100.00
8286;BME280;4181;43.416;24.598;2024-01-30T08:01:37;102669.38;;;3.96;100.00
8286;BME280;4181;43.416;24.598;2024-01-30T08:04:03;102650.59;;;4.04;100.00
8286;BME280;4181;43.416;24.598;2024-01-30T08:06:28;102665.75;;;4.24;100.00
8286;BME280;4181;43.416;24.598;2024-01-30T08:08:54;102650.09;;;4.27;100.00
8286;BME280;4181;43.416;24.598;2024-01-30T08:11:22;102649.88;;;4.38;100.00
8286;BME280;4181;43.416;24.598;2024-01-30T08:13:52;102674.84;;;4.50;100.00
8286;BME280;4181;43.416;24.598;2024-01-30T08:16:17;102669.69;;;4.56;100.00
8286;BME280;4181;43.416;24.598;2024-01-30T08:18:43;102664.53;;;4.63;100.00
8286;BME280;4181;43.416;24.598;2024-01-30T08:21:08;102674.06;;;4.67;100.00
8286;BME280;4181;43.416;24.598;2024-01-30T08:23:34;102668.56;;;4.76;100.00
8286;BME280;4181;43.416;24.598;2024-01-30T08:26:00;102685.19;;;4.81;100.00
8286;BME280;4181;43.416;24.598;2024-01-30T08:28:25;102673.97;;;4.76;100.00
8286;BME280;4181;43.416;24.598;2024-01-30T08:30:51;102680.66;;;4.82;100.00
8286;BME280;4181;43.416;24.598;2024-01-30T08:33:17;102668.19;;;4.71;100.00
8286;BME280;4181;43.416;24.598;2024-01-30T08:35:42;102666.72;;;4.77;100.00
8286;BME280;4181;43.416;24.598;2024-01-30T08:38:07;102666.09;;;4.83;100.00
8286;BME280;4181;43.416;24.598;2024-01-30T08:40:33;102676.13;;;4.73;100.00
8286;BME280;4181;43.416;24.598;2024-01-30T08:42:58;102685.34;;;4.26;100.00
8286;BME280;4181;43.416;24.598;2024-01-30T08:45:24;102686.50;;;4.23;100.00
8286;BME280;4181;43.416;24.598;2024-01-30T08:47:49;102681.75;;;4.35;100.00
8286;BME280;4181;43.416;24.598;2024-01-30T08:50:15;102690.22;;;4.49;100.00
8286;BME280;4181;43.416;24.598;2024-01-30T08:52:40;102686.84;;;4.47;100.00
8286;BME280;4181;43.416;24.598;2024-01-30T08:55:06;102683.91;;;4.58;100.00
8286;BME280;4181;43.416;24.598;2024-01-30T08:57:32;102682.31;;;4.65;100.00
8286;BME280;4181;43.416;24.598;2024-01-30T08:59:57;102668.72;;;4.75;100.00
8286;BME280;4181;43.416;24.598;2024-01-30T09:02:22;102673.25;;;4.84;100.00
8286;BME280;4181;43.416;24.598;2024-01-30T09:04:48;102674.25;;;5.00;100.00
8286;BME280;4181;43.416;24.598;2024-01-30T09:07:13;102680.44;;;5.10;100.00
8286;BME280;4181;43.416;24.598;2024-01-30T09:09:39;102649.28;;;4.89;100.00
8286;BME280;4181;43.416;24.598;2024-01-30T09:12:08;102672.22;;;5.02;100.00
8286;BME280;4181;43.416;24.598;2024-01-30T09:14:35;102676.03;;;5.09;100.00
8286;BME280;4181;43.416;24.598;2024-01-30T09:17:01;102672.22;;;5.02;100.00
8286;BME280;4181;43.416;24.598;2024-01-30T09:19:28;102674.03;;;5.11;100.00
8286;BME280;4181;43.416;24.598;2024-01-30T09:21:53;102672.19;;;5.12;100.00
8286;BME280;4181;43.416;24.598;2024-01-30T09:24:19;102665.00;;;5.21;100.00
8286;BME280;4181;43.416;24.598;2024-01-30T09:26:45;102670.91;;;5.24;100.00
8286;BME280;4181;43.416;24.598;2024-01-30T09:29:10;102661.66;;;4.64;100.00
8286;BME280;4181;43.416;24.598;2024-01-30T09:31:36;102673.16;;;4.93;100.00
8286;BME280;4181;43.416;24.598;2024-01-30T09:34:01;102669.41;;;5.04;100.00
8286;BME280;4181;43.416;24.598;2024-01-30T09:36:27;102667.59;;;5.12;100.00
8286;BME280;4181;43.416;24.598;2024-01-30T09:38:53;102670.84;;;5.16;100.00
8286;BME280;4181;43.416;24.598;2024-01-30T09:41:19;102664.50;;;5.25;100.00
8286;BME280;4181;43.416;24.598;2024-01-30T09:43:47;102665.97;;;5.37;100.00
8286;BME280;4181;43.416;24.598;2024-01-30T09:46:17;102661.59;;;5.18;100.00
8286;BME280;4181;43.416;24.598;2024-01-30T09:48:46;102664.44;;;5.17;100.00
8286;BME280;4181;43.416;24.598;2024-01-30T09:51:14;102660.19;;;5.14;100.00
8286;BME280;4181;43.416;24.598;2024-01-30T09:53:42;102647.81;;;5.12;100.00
8286;BME280;4181;43.416;24.598;2024-01-30T09:56:08;102647.88;;;5.02;100.00
8286;BME280;4181;43.416;24.598;2024-01-30T09:58:34;102651.06;;;4.98;100.00
8286;BME280;4181;43.416;24.598;2024-01-30T10:00:59;102655.94;;;5.12;100.00
8286;BME280;4181;43.416;24.598;2024-01-30T10:03:25;102650.91;;;5.17;100.00
8286;BME280;4181;43.416;24.598;2024-01-30T10:05:51;102646.34;;;5.35;100.00
8286;BME280;4181;43.416;24.598;2024-01-30T10:08:19;102624.91;;;5.42;100.00
8286;BME280;4181;43.416;24.598;2024-01-30T10:10:49;102629.59;;;5.57;100.00
8286;BME280;4181;43.416;24.598;2024-01-30T10:13:15;102632.50;;;5.64;100.00
8286;BME280;4181;43.416;24.598;2024-01-30T10:15:41;102628.69;;;5.74;100.00
8286;BME280;4181;43.416;24.598;2024-01-30T10:18:08;102628.78;;;5.82;100.00
8286;BME280;4181;43.416;24.598;2024-01-30T10:20:35;102620.50;;;5.66;100.00
8286;BME280;4181;43.416;24.598;2024-01-30T10:23:01;102630.19;;;5.69;100.00
8286;BME280;4181;43.416;24.598;2024-01-30T10:25:27;102615.50;;;5.54;100.00
8286;BME280;4181;43.416;24.598;2024-01-30T10:27:53;102629.91;;;5.80;100.00
8286;BME280;4181;43.416;24.598;2024-01-30T10:30:23;102622.06;;;5.69;100.00
8286;BME280;4181;43.416;24.598;2024-01-30T10:32:49;102622.88;;;5.69;100.00
8286;BME280;4181;43.416;24.598;2024-01-30T10:35:15;102616.84;;;5.75;100.00
8286;BME280;4181;43.416;24.598;2024-01-30T10:37:48;102605.69;;;5.78;100.00
8286;BME280;4181;43.416;24.598;2024-01-30T10:40:14;102624.03;;;5.84;100.00
8286;BME280;4181;43.416;24.598;2024-01-30T10:42:44;102618.16;;;5.89;100.00
8286;BME280;4181;43.416;24.598;2024-01-30T10:45:13;102624.72;;;5.86;100.00
8286;BME280;4181;43.416;24.598;2024-01-30T10:47:43;102618.78;;;5.83;100.00
8286;BME280;4181;43.416;24.598;2024-01-30T10:50:09;102613.50;;;5.81;100.00
8286;BME280;4181;43.416;24.598;2024-01-30T10:52:36;102615.59;;;5.87;100.00
8286;BME280;4181;43.416;24.598;2024-01-30T10:55:03;102612.44;;;6.00;100.00
8286;BME280;4181;43.416;24.598;2024-01-30T10:57:34;102606.69;;;6.03;100.00
8286;BME280;4181;43.416;24.598;2024-01-30T11:00:00;102600.75;;;5.99;100.00
8286;BME280;4181;43.416;24.598;2024-01-30T11:02:27;102591.22;;;5.87;100.00
8286;BME280;4181;43.416;24.598;2024-01-30T11:05:00;102602.44;;;5.92;100.00
8286;BME280;4181;43.416;24.598;2024-01-30T11:07:27;102600.22;;;5.96;100.00
8286;BME280;4181;43.416;24.598;2024-01-30T11:10:00;102601.38;;;5.85;100.00
8286;BME280;4181;43.416;24.598;2024-01-30T11:12:30;102594.97;;;5.94;100.00
8286;BME280;4181;43.416;24.598;2024-01-30T11:20:19;102590.97;;;6.06;100.00
8286;BME280;4181;43.416;24.598;2024-01-30T11:22:46;102593.84;;;6.05;100.00
8286;BME280;4181;43.416;24.598;2024-01-30T11:25:16;102599.09;;;6.06;100.00
8286;BME280;4181;43.416;24.598;2024-01-30T11:27:43;102584.75;;;6.14;100.00
8286;BME280;4181;43.416;24.598;2024-01-30T11:30:09;102563.16;;;6.04;100.00
8286;BME280;4181;43.416;24.598;2024-01-30T11:32:35;102588.13;;;6.16;100.00
8286;BME280;4181;43.416;24.598;2024-01-30T11:35:03;102561.50;;;6.11;100.00
8286;BME280;4181;43.416;24.598;2024-01-30T11:37:31;102577.88;;;5.94;100.00
8286;BME280;4181;43.416;24.598;2024-01-30T11:39:56;102575.09;;;5.86;100.00
8286;BME280;4181;43.416;24.598;2024-01-30T11:42:23;102567.13;;;5.84;100.00
8286;BME280;4181;43.416;24.598;2024-01-30T11:44:51;102579.25;;;5.72;100.00
8286;BME280;4181;43.416;24.598;2024-01-30T11:47:16;102575.72;;;5.29;100.00
8286;BME280;4181;43.416;24.598;2024-01-30T11:49:43;102569.88;;;5.41;100.00
8286;BME280;4181;43.416;24.598;2024-01-30T11:52:09;102550.72;;;5.09;100.00
8286;BME280;4181;43.416;24.598;2024-01-30T11:54:35;102546.72;;;5.21;100.00
8286;BME280;4181;43.416;24.598;2024-01-30T11:57:01;102566.38;;;5.23;100.00
8286;BME280;4181;43.416;24.598;2024-01-30T11:59:26;102559.59;;;5.45;100.00
8286;BME280;4181;43.416;24.598;2024-01-30T12:01:52;102527.75;;;5.39;100.00
8286;BME280;4181;43.416;24.598;2024-01-30T12:04:18;102549.00;;;5.59;100.00
8286;BME280;4181;43.416;24.598;2024-01-30T12:06:43;102553.09;;;5.38;100.00
8286;BME280;4181;43.416;24.598;2024-01-30T12:09:09;102546.63;;;5.56;100.00
8286;BME280;4181;43.416;24.598;2024-01-30T12:11:48;102548.44;;;5.73;100.00
8286;BME280;4181;43.416;24.598;2024-01-30T12:14:16;102559.25;;;5.73;100.00
8286;BME280;4181;43.416;24.598;2024-01-30T12:16:42;102550.13;;;5.74;100.00
8286;BME280;4181;43.416;24.598;2024-01-30T12:19:08;102547.25;;;4.99;100.00
8286;BME280;4181;43.416;24.598;2024-01-30T12:21:34;102537.41;;;5.15;100.00
8286;BME280;4181;43.416;24.598;2024-01-30T12:24:00;102538.78;;;5.45;100.00
8286;BME280;4181;43.416;24.598;2024-01-30T12:26:26;102540.88;;;5.59;100.00
8286;BME280;4181;43.416;24.598;2024-01-30T12:28:54;102540.97;;;5.67;100.00
8286;BME280;4181;43.416;24.598;2024-01-30T12:31:27;102537.50;;;5.83;100.00
8286;BME280;4181;43.416;24.598;2024-01-30T12:33:53;102525.84;;;5.82;100.00
8286;BME280;4181;43.416;24.598;2024-01-30T12:36:19;102511.91;;;5.77;100.00
8286;BME280;4181;43.416;24.598;2024-01-30T12:38:46;102522.81;;;5.93;100.00
8286;BME280;4181;43.416;24.598;2024-01-30T12:41:11;102509.97;;;5.95;100.00
8286;BME280;4181;43.416;24.598;2024-01-30T12:43:37;102514.75;;;6.09;100.00
8286;BME280;4181;43.416;24.598;2024-01-30T12:46:03;102508.44;;;6.01;100.00
8286;BME280;4181;43.416;24.598;2024-01-30T12:48:28;102509.63;;;5.98;100.00
8286;BME280;4181;43.416;24.598;2024-01-30T12:50:55;102501.47;;;5.90;100.00
8286;BME280;4181;43.416;24.598;2024-01-30T12:53:21;102503.25;;;6.07;100.00
8286;BME280;4181;43.416;24.598;2024-01-30T12:55:47;102494.06;;;6.00;100.00
8286;BME280;4181;43.416;24.598;2024-01-30T12:58:12;102479.31;;;6.03;100.00